sensor_id;sensor_type;location;lat;lon;timestamp;P1;durP1;ratioP1;P2;durP2;ratioP2
5060;SDS011;2549;52.128;21.068;2023-08-17T00:01:35;9.50;;;8.50;;
5060;SDS011;2549;52.128;21.068;2023-08-17T00:04:03;12.40;;;8.40;;
5060;SDS011;2549;52.128;21.068;2023-08-17T00:06:29;11.20;;;8.90;;
5060;SDS011;2549;52.128;21.068;2023-08-17T00:08:56;16.03;;;8.83;;
5060;SDS011;2549;52.128;21.068;2023-08-17T00:11:23;9.90;;;7.17;;
5060;SDS011;2549;52.128;21.068;2023-08-17T00:13:50;12.00;;;8.73;;
5060;SDS011;2549;52.128;21.068;2023-08-17T00:16:17;14.17;;;8.17;;
5060;SDS011;2549;52.128;21.068;2023-08-17T00:18:44;15.37;;;8.33;;
5060;SDS011;2549;52.128;21.068;2023-08-17T00:21:11;19.07;;;8.53;;
5060;SDS011;2549;52.128;21.068;2023-08-17T00:23:38;9.53;;;8.27;;
5060;SDS011;2549;52.128;21.068;2023-08-17T00:26:05;10.17;;;8.23;;
5060;SDS011;2549;52.128;21.068;2023-08-17T00:28:32;12.93;;;8.20;;
5060;SDS011;2549;52.128;21.068;2023-08-17T00:31:00;13.83;;;8.40;;
5060;SDS011;2549;52.128;21.068;2023-08-17T00:33:27;10.20;;;8.30;;
5060;SDS011;2549;52.128;21.068;2023-08-17T00:35:54;9.40;;;7.27;;
5060;SDS011;2549;52.128;21.068;2023-08-17T00:38:21;11.07;;;8.20;;
5060;SDS011;2549;52.128;21.068;2023-08-17T00:40:48;13.37;;;8.33;;
5060;SDS011;2549;52.128;21.068;2023-08-17T00:43:15;13.47;;;8.10;;
5060;SDS011;2549;52.128;21.068;2023-08-17T00:45:42;9.77;;;8.67;;
5060;SDS011;2549;52.128;21.068;2023-08-17T00:48:11;9.50;;;7.67;;
5060;SDS011;2549;52.128;21.068;2023-08-17T00:50:39;10.20;;;9.07;;
5060;SDS011;2549;52.128;21.068;2023-08-17T00:53:07;9.10;;;7.70;;
5060;SDS011;2549;52.128;21.068;2023-08-17T00:55:39;9.23;;;7.83;;
5060;SDS011;2549;52.128;21.068;2023-08-17T00:58:07;11.93;;;8.10;;
5060;SDS011;2549;52.128;21.068;2023-08-17T01:00:34;17.83;;;8.67;;
5060;SDS011;2549;52.128;21.068;2023-08-17T01:03:01;16.93;;;9.33;;
5060;SDS011;2549;52.128;21.068;2023-08-17T01:05:29;10.90;;;8.37;;
5060;SDS011;2549;52.128;21.068;2023-08-17T01:07:59;12.63;;;8.40;;
5060;SDS011;2549;52.128;21.068;2023-08-17T01:10:28;12.33;;;7.83;;
5060;SDS011;2549;52.128;21.068;2023-08-17T01:13:10;17.63;;;9.17;;
5060;SDS011;2549;52.128;21.068;2023-08-17T01:15:47;12.43;;;8.33;;
5060;SDS011;2549;52.128;21.068;2023-08-17T01:18:20;15.10;;;8.53;;
5060;SDS011;2549;52.128;21.068;2023-08-17T01:20:58;9.40;;;8.50;;
5060;SDS011;2549;52.128;21.068;2023-08-17T01:23:26;11.60;;;9.17;;
5060;SDS011;2549;52.128;21.068;2023-08-17T01:25:53;14.77;;;9.63;;
5060;SDS011;2549;52.128;21.068;2023-08-17T01:28:20;11.83;;;7.70;;
5060;SDS011;2549;52.128;21.068;2023-08-17T01:30:57;11.10;;;9.00;;
5060;SDS011;2549;52.128;21.068;2023-08-17T01:33:31;9.40;;;8.40;;
5060;SDS011;2549;52.128;21.068;2023-08-17T01:36:11;10.90;;;8.60;;
5060;SDS011;2549;52.128;21.068;2023-08-17T01:38:45;8.67;;;7.87;;
5060;SDS011;2549;52.128;21.068;2023-08-17T01:41:13;12.87;;;8.60;;
5060;SDS011;2549;52.128;21.068;2023-08-17T01:43:42;10.87;;;8.63;;
5060;SDS011;2549;52.128;21.068;2023-08-17T01:46:17;10.57;;;8.50;;
5060;SDS011;2549;52.128;21.068;2023-08-17T01:48:45;13.47;;;8.50;;
5060;SDS011;2549;52.128;21.068;2023-08-17T01:51:17;12.67;;;9.30;;
5060;SDS011;2549;52.128;21.068;2023-08-17T01:53:48;16.73;;;8.33;;
5060;SDS011;2549;52.128;21.068;2023-08-17T01:56:15;12.80;;;8.80;;
5060;SDS011;2549;52.128;21.068;2023-08-17T01:58:42;21.77;;;9.93;;
5060;SDS011;2549;52.128;21.068;2023-08-17T02:01:09;16.30;;;8.70;;
5060;SDS011;2549;52.128;21.068;2023-08-17T02:03:36;16.43;;;9.03;;
5060;SDS011;2549;52.128;21.068;2023-08-17T02:06:04;15.83;;;8.50;;
5060;SDS011;2549;52.128;21.068;2023-08-17T02:08:32;12.77;;;8.60;;
5060;SDS011;2549;52.128;21.068;2023-08-17T02:11:00;9.90;;;8.27;;
5060;SDS011;2549;52.128;21.068;2023-08-17T02:13:27;9.83;;;8.40;;
5060;SDS011;2549;52.128;21.068;2023-08-17T02:15:54;10.33;;;8.77;;
5060;SDS011;2549;52.128;21.068;2023-08-17T02:18:21;10.77;;;8.50;;
5060;SDS011;2549;52.128;21.068;2023-08-17T02:20:47;11.13;;;8.83;;
5060;SDS011;2549;52.128;21.068;2023-08-17T02:23:14;16.70;;;8.83;;
5060;SDS011;2549;52.128;21.068;2023-08-17T02:25:42;20.67;;;8.30;;
5060;SDS011;2549;52.128;21.068;2023-08-17T02:28:09;13.27;;;8.90;;
5060;SDS011;2549;52.128;21.068;2023-08-17T02:30:35;9.30;;;7.87;;
5060;SDS011;2549;52.128;21.068;2023-08-17T02:33:03;18.10;;;9.17;;
5060;SDS011;2549;52.128;21.068;2023-08-17T02:35:30;10.87;;;8.67;;
5060;SDS011;2549;52.128;21.068;2023-08-17T02:37:57;20.23;;;8.13;;
5060;SDS011;2549;52.128;21.068;2023-08-17T02:40:24;12.53;;;8.93;;
5060;SDS011;2549;52.128;21.068;2023-08-17T02:42:51;11.43;;;8.30;;
5060;SDS011;2549;52.128;21.068;2023-08-17T02:45:18;12.37;;;8.63;;
5060;SDS011;2549;52.128;21.068;2023-08-17T02:47:45;10.83;;;9.33;;
5060;SDS011;2549;52.128;21.068;2023-08-17T02:50:12;20.10;;;8.87;;
5060;SDS011;2549;52.128;21.068;2023-08-17T02:52:39;11.70;;;8.77;;
5060;SDS011;2549;52.128;21.068;2023-08-17T02:55:06;9.73;;;8.33;;
5060;SDS011;2549;52.128;21.068;2023-08-17T02:57:35;19.20;;;9.20;;
5060;SDS011;2549;52.128;21.068;2023-08-17T03:00:02;13.40;;;8.63;;
5060;SDS011;2549;52.128;21.068;2023-08-17T03:02:30;14.53;;;9.43;;
5060;SDS011;2549;52.128;21.068;2023-08-17T03:04:57;11.83;;;9.40;;
5060;SDS011;2549;52.128;21.068;2023-08-17T03:07:23;13.83;;;9.33;;
5060;SDS011;2549;52.128;21.068;2023-08-17T03:09:51;9.77;;;8.70;;
5060;SDS011;2549;52.128;21.068;2023-08-17T03:12:17;12.13;;;9.47;;
5060;SDS011;2549;52.128;21.068;2023-08-17T03:14:44;11.87;;;9.53;;
5060;SDS011;2549;52.128;21.068;2023-08-17T03:17:11;11.33;;;8.87;;
5060;SDS011;2549;52.128;21.068;2023-08-17T03:19:38;14.20;;;9.73;;
5060;SDS011;2549;52.128;21.068;2023-08-17T03:22:05;15.60;;;9.20;;
5060;SDS011;2549;52.128;21.068;2023-08-17T03:24:33;9.23;;;8.30;;
5060;SDS011;2549;52.128;21.068;2023-08-17T03:26:59;11.80;;;8.10;;
5060;SDS011;2549;52.128;21.068;2023-08-17T03:29:26;18.37;;;9.13;;
5060;SDS011;2549;52.128;21.068;2023-08-17T03:31:53;11.30;;;9.00;;
5060;SDS011;2549;52.128;21.068;2023-08-17T03:34:22;9.40;;;8.50;;
5060;SDS011;2549;52.128;21.068;2023-08-17T03:36:49;11.63;;;9.13;;
5060;SDS011;2549;52.128;21.068;2023-08-17T03:39:16;14.57;;;8.77;;
5060;SDS011;2549;52.128;21.068;2023-08-17T03:41:43;13.77;;;9.03;;
5060;SDS011;2549;52.128;21.068;2023-08-17T03:44:10;23.40;;;9.37;;
5060;SDS011;2549;52.128;21.068;2023-08-17T03:46:37;10.23;;;9.03;;
5060;SDS011;2549;52.128;21.068;2023-08-17T03:49:04;11.70;;;8.67;;
5060;SDS011;2549;52.128;21.068;2023-08-17T03:51:31;9.47;;;8.67;;
5060;SDS011;2549;52.128;21.068;2023-08-17T03:53:58;9.37;;;8.47;;
5060;SDS011;2549;52.128;21.068;2023-08-17T03:56:25;8.87;;;7.97;;
5060;SDS011;2549;52.128;21.068;2023-08-17T03:58:53;11.10;;;8.53;;
5060;SDS011;2549;52.128;21.068;2023-08-17T04:01:21;11.57;;;9.83;;
5060;SDS011;2549;52.128;21.068;2023-08-17T04:03:48;13.10;;;8.87;;
5060;SDS011;2549;52.128;21.068;2023-08-17T04:06:14;15.07;;;8.80;;
5060;SDS011;2549;52.128;21.068;2023-08-17T04:08:41;10.10;;;8.77;;
5060;SDS011;2549;52.128;21.068;2023-08-17T04:11:08;11.23;;;8.70;;
5060;SDS011;2549;52.128;21.068;2023-08-17T04:13:35;13.93;;;8.73;;
5060;SDS011;2549;52.128;21.068;2023-08-17T04:16:02;10.10;;;7.90;;
5060;SDS011;2549;52.128;21.068;2023-08-17T04:18:29;10.17;;;8.10;;
5060;SDS011;2549;52.128;21.068;2023-08-17T04:20:56;9.30;;;7.67;;
5060;SDS011;2549;52.128;21.068;2023-08-17T04:23:23;10.83;;;7.63;;
5060;SDS011;2549;52.128;21.068;2023-08-17T04:25:50;12.73;;;8.80;;
5060;SDS011;2549;52.128;21.068;2023-08-17T04:28:17;10.03;;;7.67;;
5060;SDS011;2549;52.128;21.068;2023-08-17T04:30:44;18.47;;;8.70;;
5060;SDS011;2549;52.128;21.068;2023-08-17T04:33:11;11.00;;;8.10;;
5060;SDS011;2549;52.128;21.068;2023-08-17T04:35:39;20.90;;;7.60;;
5060;SDS011;2549;52.128;21.068;2023-08-17T04:38:06;12.73;;;8.03;;
5060;SDS011;2549;52.128;21.068;2023-08-17T04:40:33;11.83;;;8.47;;
5060;SDS011;2549;52.128;21.068;2023-08-17T04:43:00;10.07;;;7.20;;
5060;SDS011;2549;52.128;21.068;2023-08-17T04:45:28;15.77;;;7.17;;
5060;SDS011;2549;52.128;21.068;2023-08-17T04:47:55;7.83;;;7.03;;
5060;SDS011;2549;52.128;21.068;2023-08-17T04:50:22;10.37;;;6.87;;
5060;SDS011;2549;52.128;21.068;2023-08-17T04:52:49;13.17;;;8.10;;
5060;SDS011;2549;52.128;21.068;2023-08-17T04:55:16;15.57;;;9.20;;
5060;SDS011;2549;52.128;21.068;2023-08-17T04:57:42;9.73;;;8.73;;
5060;SDS011;2549;52.128;21.068;2023-08-17T05:00:10;20.13;;;9.27;;
5060;SDS011;2549;52.128;21.068;2023-08-17T05:02:38;19.63;;;9.47;;
5060;SDS011;2549;52.128;21.068;2023-08-17T05:05:06;20.87;;;9.10;;
5060;SDS011;2549;52.128;21.068;2023-08-17T05:07:34;12.47;;;8.03;;
5060;SDS011;2549;52.128;21.068;2023-08-17T05:10:02;11.90;;;9.03;;
5060;SDS011;2549;52.128;21.068;2023-08-17T05:12:29;18.47;;;8.90;;
5060;SDS011;2549;52.128;21.068;2023-08-17T05:14:56;15.80;;;8.80;;
5060;SDS011;2549;52.128;21.068;2023-08-17T05:17:23;12.90;;;8.43;;
5060;SDS011;2549;52.128;21.068;2023-08-17T05:19:50;8.87;;;7.53;;
5060;SDS011;2549;52.128;21.068;2023-08-17T05:22:17;10.03;;;8.40;;
5060;SDS011;2549;52.128;21.068;2023-08-17T05:24:44;10.90;;;7.73;;
5060;SDS011;2549;52.128;21.068;2023-08-17T05:27:11;11.50;;;8.13;;
5060;SDS011;2549;52.128;21.068;2023-08-17T05:29:38;10.90;;;7.63;;
5060;SDS011;2549;52.128;21.068;2023-08-17T05:32:05;9.33;;;7.60;;
5060;SDS011;2549;52.128;21.068;2023-08-17T05:34:32;9.47;;;7.83;;
5060;SDS011;2549;52.128;21.068;2023-08-17T05:36:59;16.50;;;8.83;;
5060;SDS011;2549;52.128;21.068;2023-08-17T05:39:26;8.93;;;8.03;;
5060;SDS011;2549;52.128;21.068;2023-08-17T05:41:52;8.57;;;7.77;;
5060;SDS011;2549;52.128;21.068;2023-08-17T05:44:19;9.33;;;8.20;;
5060;SDS011;2549;52.128;21.068;2023-08-17T05:46:46;8.40;;;7.53;;
5060;SDS011;2549;52.128;21.068;2023-08-17T05:49:15;10.40;;;8.63;;
5060;SDS011;2549;52.128;21.068;2023-08-17T05:51:41;8.67;;;7.53;;
5060;SDS011;2549;52.128;21.068;2023-08-17T05:54:08;16.50;;;8.30;;
5060;SDS011;2549;52.128;21.068;2023-08-17T05:56:35;8.80;;;7.90;;
5060;SDS011;2549;52.128;21.068;2023-08-17T05:59:02;10.20;;;7.40;;
5060;SDS011;2549;52.128;21.068;2023-08-17T06:01:29;11.73;;;7.53;;
5060;SDS011;2549;52.128;21.068;2023-08-17T06:03:57;14.80;;;8.70;;
5060;SDS011;2549;52.128;21.068;2023-08-17T06:06:24;8.90;;;7.10;;
5060;SDS011;2549;52.128;21.068;2023-08-17T06:08:52;13.33;;;8.60;;
5060;SDS011;2549;52.128;21.068;2023-08-17T06:11:19;9.80;;;7.70;;
5060;SDS011;2549;52.128;21.068;2023-08-17T06:13:46;22.03;;;8.80;;
5060;SDS011;2549;52.128;21.068;2023-08-17T06:16:13;8.07;;;6.93;;
5060;SDS011;2549;52.128;21.068;2023-08-17T06:18:40;11.03;;;8.43;;
5060;SDS011;2549;52.128;21.068;2023-08-17T06:21:07;9.50;;;7.13;;
5060;SDS011;2549;52.128;21.068;2023-08-17T06:23:34;9.73;;;7.30;;
5060;SDS011;2549;52.128;21.068;2023-08-17T06:26:01;13.50;;;7.90;;
5060;SDS011;2549;52.128;21.068;2023-08-17T06:28:29;10.97;;;7.87;;
5060;SDS011;2549;52.128;21.068;2023-08-17T06:30:56;11.00;;;7.60;;
5060;SDS011;2549;52.128;21.068;2023-08-17T06:33:23;11.00;;;8.10;;
5060;SDS011;2549;52.128;21.068;2023-08-17T06:35:50;10.27;;;7.60;;
5060;SDS011;2549;52.128;21.068;2023-08-17T06:38:17;14.83;;;7.50;;
5060;SDS011;2549;52.128;21.068;2023-08-17T06:40:45;8.87;;;7.20;;
5060;SDS011;2549;52.128;21.068;2023-08-17T06:43:12;12.43;;;7.40;;
5060;SDS011;2549;52.128;21.068;2023-08-17T06:45:42;8.57;;;7.40;;
5060;SDS011;2549;52.128;21.068;2023-08-17T06:48:09;9.73;;;7.20;;
5060;SDS011;2549;52.128;21.068;2023-08-17T06:50:36;8.47;;;7.67;;
5060;SDS011;2549;52.128;21.068;2023-08-17T06:53:03;13.63;;;6.90;;
5060;SDS011;2549;52.128;21.068;2023-08-17T06:55:30;10.50;;;7.67;;
5060;SDS011;2549;52.128;21.068;2023-08-17T06:57:57;9.20;;;7.07;;
5060;SDS011;2549;52.128;21.068;2023-08-17T07:00:24;9.40;;;6.70;;
5060;SDS011;2549;52.128;21.068;2023-08-17T07:02:51;9.70;;;7.00;;
5060;SDS011;2549;52.128;21.068;2023-08-17T07:05:22;8.00;;;7.20;;
5060;SDS011;2549;52.128;21.068;2023-08-17T07:07:50;9.80;;;7.07;;
5060;SDS011;2549;52.128;21.068;2023-08-17T07:10:17;10.03;;;7.13;;
5060;SDS011;2549;52.128;21.068;2023-08-17T07:12:44;9.43;;;6.97;;
5060;SDS011;2549;52.128;21.068;2023-08-17T07:15:11;5.83;;;5.43;;
5060;SDS011;2549;52.128;21.068;2023-08-17T07:17:39;12.77;;;6.43;;
5060;SDS011;2549;52.128;21.068;2023-08-17T07:20:06;13.93;;;6.83;;
5060;SDS011;2549;52.128;21.068;2023-08-17T07:22:42;7.43;;;6.03;;
5060;SDS011;2549;52.128;21.068;2023-08-17T07:25:09;8.43;;;6.13;;
5060;SDS011;2549;52.128;21.068;2023-08-17T07:27:36;7.90;;;6.93;;
5060;SDS011;2549;52.128;21.068;2023-08-17T07:30:03;7.93;;;7.13;;
5060;SDS011;2549;52.128;21.068;2023-08-17T07:32:30;7.63;;;6.23;;
5060;SDS011;2549;52.128;21.068;2023-08-17T07:34:57;12.53;;;6.27;;
5060;SDS011;2549;52.128;21.068;2023-08-17T07:37:24;11.33;;;6.73;;
5060;SDS011;2549;52.128;21.068;2023-08-17T07:39:58;9.80;;;6.67;;
5060;SDS011;2549;52.128;21.068;2023-08-17T07:42:25;11.97;;;8.07;;
5060;SDS011;2549;52.128;21.068;2023-08-17T07:44:53;9.93;;;7.90;;
5060;SDS011;2549;52.128;21.068;2023-08-17T07:47:19;11.37;;;7.50;;
5060;SDS011;2549;52.128;21.068;2023-08-17T07:49:46;15.23;;;7.10;;
5060;SDS011;2549;52.128;21.068;2023-08-17T07:52:15;7.90;;;6.63;;
5060;SDS011;2549;52.128;21.068;2023-08-17T07:54:42;9.73;;;7.07;;
5060;SDS011;2549;52.128;21.068;2023-08-17T07:57:09;11.40;;;7.67;;
5060;SDS011;2549;52.128;21.068;2023-08-17T07:59:36;8.90;;;7.00;;
5060;SDS011;2549;52.128;21.068;2023-08-17T08:02:03;9.43;;;6.60;;
5060;SDS011;2549;52.128;21.068;2023-08-17T08:04:30;11.80;;;6.60;;
5060;SDS011;2549;52.128;21.068;2023-08-17T08:06:57;9.77;;;6.83;;
5060;SDS011;2549;52.128;21.068;2023-08-17T08:09:24;6.40;;;5.80;;
5060;SDS011;2549;52.128;21.068;2023-08-17T08:11:51;8.10;;;6.70;;
5060;SDS011;2549;52.128;21.068;2023-08-17T08:14:17;12.83;;;7.13;;
5060;SDS011;2549;52.128;21.068;2023-08-17T08:16:44;7.37;;;6.33;;
5060;SDS011;2549;52.128;21.068;2023-08-17T08:19:11;9.20;;;7.10;;
5060;SDS011;2549;52.128;21.068;2023-08-17T08:21:38;7.60;;;6.23;;
5060;SDS011;2549;52.128;21.068;2023-08-17T08:24:05;15.43;;;7.20;;
5060;SDS011;2549;52.128;21.068;2023-08-17T08:26:47;12.33;;;8.23;;
5060;SDS011;2549;52.128;21.068;2023-08-17T08:29:14;10.87;;;6.83;;
5060;SDS011;2549;52.128;21.068;2023-08-17T08:31:41;7.70;;;6.60;;
5060;SDS011;2549;52.128;21.068;2023-08-17T08:34:08;9.83;;;6.63;;
5060;SDS011;2549;52.128;21.068;2023-08-17T08:36:35;13.20;;;8.40;;
5060;SDS011;2549;52.128;21.068;2023-08-17T08:39:02;7.57;;;6.43;;
5060;SDS011;2549;52.128;21.068;2023-08-17T08:41:29;8.37;;;6.50;;
5060;SDS011;2549;52.128;21.068;2023-08-17T08:43:56;7.03;;;6.17;;
5060;SDS011;2549;52.128;21.068;2023-08-17T08:46:24;7.20;;;6.10;;
5060;SDS011;2549;52.128;21.068;2023-08-17T08:48:56;8.43;;;6.70;;
5060;SDS011;2549;52.128;21.068;2023-08-17T08:51:25;6.87;;;6.17;;
5060;SDS011;2549;52.128;21.068;2023-08-17T08:54:00;15.00;;;5.87;;
5060;SDS011;2549;52.128;21.068;2023-08-17T08:56:32;7.23;;;6.63;;
5060;SDS011;2549;52.128;21.068;2023-08-17T08:59:01;6.43;;;5.83;;
5060;SDS011;2549;52.128;21.068;2023-08-17T09:01:31;10.60;;;6.50;;
5060;SDS011;2549;52.128;21.068;2023-08-17T09:03:59;8.80;;;6.47;;
5060;SDS011;2549;52.128;21.068;2023-08-17T09:06:27;10.40;;;6.70;;
5060;SDS011;2549;52.128;21.068;2023-08-17T09:08:59;7.30;;;5.80;;
5060;SDS011;2549;52.128;21.068;2023-08-17T09:11:27;7.57;;;6.40;;
5060;SDS011;2549;52.128;21.068;2023-08-17T09:13:54;7.77;;;6.50;;
5060;SDS011;2549;52.128;21.068;2023-08-17T09:16:21;8.53;;;6.50;;
5060;SDS011;2549;52.128;21.068;2023-08-17T09:18:52;8.07;;;6.10;;
5060;SDS011;2549;52.128;21.068;2023-08-17T09:21:20;8.77;;;6.03;;
5060;SDS011;2549;52.128;21.068;2023-08-17T09:23:55;9.07;;;6.20;;
5060;SDS011;2549;52.128;21.068;2023-08-17T09:26:25;16.73;;;6.47;;
5060;SDS011;2549;52.128;21.068;2023-08-17T09:28:56;7.17;;;5.90;;
5060;SDS011;2549;52.128;21.068;2023-08-17T09:31:25;7.93;;;5.73;;
5060;SDS011;2549;52.128;21.068;2023-08-17T09:33:52;7.17;;;6.50;;
5060;SDS011;2549;52.128;21.068;2023-08-17T09:36:20;6.73;;;6.10;;
5060;SDS011;2549;52.128;21.068;2023-08-17T09:38:50;7.10;;;6.50;;
5060;SDS011;2549;52.128;21.068;2023-08-17T09:41:18;11.03;;;6.67;;
5060;SDS011;2549;52.128;21.068;2023-08-17T09:43:45;7.17;;;6.47;;
5060;SDS011;2549;52.128;21.068;2023-08-17T09:46:13;7.50;;;6.57;;
5060;SDS011;2549;52.128;21.068;2023-08-17T09:48:43;9.70;;;5.83;;
5060;SDS011;2549;52.128;21.068;2023-08-17T09:51:14;8.97;;;6.20;;
5060;SDS011;2549;52.128;21.068;2023-08-17T09:53:42;7.23;;;6.53;;
5060;SDS011;2549;52.128;21.068;2023-08-17T09:56:09;8.10;;;5.83;;
5060;SDS011;2549;52.128;21.068;2023-08-17T09:58:42;6.47;;;5.90;;
5060;SDS011;2549;52.128;21.068;2023-08-17T10:01:10;8.30;;;6.50;;
5060;SDS011;2549;52.128;21.068;2023-08-17T10:03:42;11.43;;;5.50;;
5060;SDS011;2549;52.128;21.068;2023-08-17T10:06:12;6.97;;;6.27;;
5060;SDS011;2549;52.128;21.068;2023-08-17T10:08:42;10.37;;;5.27;;
5060;SDS011;2549;52.128;21.068;2023-08-17T10:11:10;7.40;;;5.30;;
5060;SDS011;2549;52.128;21.068;2023-08-17T10:13:57;5.77;;;5.27;;
5060;SDS011;2549;52.128;21.068;2023-08-17T10:16:31;7.83;;;5.70;;
5060;SDS011;2549;52.128;21.068;2023-08-17T10:19:13;7.10;;;5.70;;
5060;SDS011;2549;52.128;21.068;2023-08-17T10:22:12;5.60;;;5.00;;
5060;SDS011;2549;52.128;21.068;2023-08-17T10:24:45;7.23;;;5.57;;
5060;SDS011;2549;52.128;21.068;2023-08-17T10:27:12;7.27;;;4.77;;
5060;SDS011;2549;52.128;21.068;2023-08-17T10:29:40;7.40;;;5.90;;
5060;SDS011;2549;52.128;21.068;2023-08-17T10:32:08;6.40;;;4.93;;
5060;SDS011;2549;52.128;21.068;2023-08-17T10:34:35;5.43;;;4.50;;
5060;SDS011;2549;52.128;21.068;2023-08-17T10:37:03;5.43;;;3.80;;
5060;SDS011;2549;52.128;21.068;2023-08-17T10:39:30;8.27;;;4.00;;
5060;SDS011;2549;52.128;21.068;2023-08-17T10:41:58;5.70;;;4.20;;
5060;SDS011;2549;52.128;21.068;2023-08-17T10:44:42;4.73;;;2.73;;
5060;SDS011;2549;52.128;21.068;2023-08-17T10:50:05;4.43;;;3.23;;
5060;SDS011;2549;52.128;21.068;2023-08-17T10:52:34;6.50;;;3.70;;
5060;SDS011;2549;52.128;21.068;2023-08-17T10:55:04;16.23;;;3.10;;
5060;SDS011;2549;52.128;21.068;2023-08-17T11:10:57;6.80;;;3.23;;
5060;SDS011;2549;52.128;21.068;2023-08-17T11:13:37;3.13;;;2.40;;
5060;SDS011;2549;52.128;21.068;2023-08-17T11:16:06;6.67;;;2.90;;
5060;SDS011;2549;52.128;21.068;2023-08-17T11:18:34;2.90;;;2.70;;
5060;SDS011;2549;52.128;21.068;2023-08-17T11:21:02;2.13;;;2.03;;
5060;SDS011;2549;52.128;21.068;2023-08-17T11:23:30;5.03;;;2.63;;
5060;SDS011;2549;52.128;21.068;2023-08-17T11:25:58;4.00;;;2.43;;
5060;SDS011;2549;52.128;21.068;2023-08-17T11:28:25;2.90;;;2.40;;
5060;SDS011;2549;52.128;21.068;2023-08-17T11:30:59;3.73;;;2.40;;
5060;SDS011;2549;52.128;21.068;2023-08-17T11:33:28;2.87;;;2.77;;
5060;SDS011;2549;52.128;21.068;2023-08-17T11:36:03;8.60;;;2.80;;
5060;SDS011;2549;52.128;21.068;2023-08-17T11:38:35;2.77;;;2.33;;
5060;SDS011;2549;52.128;21.068;2023-08-17T11:41:02;3.80;;;2.20;;
5060;SDS011;2549;52.128;21.068;2023-08-17T11:43:30;3.70;;;3.40;;
5060;SDS011;2549;52.128;21.068;2023-08-17T11:45:59;4.93;;;2.33;;
5060;SDS011;2549;52.128;21.068;2023-08-17T11:48:27;5.80;;;2.87;;
5060;SDS011;2549;52.128;21.068;2023-08-17T11:50:55;3.97;;;3.60;;
5060;SDS011;2549;52.128;21.068;2023-08-17T11:53:22;7.53;;;3.30;;
5060;SDS011;2549;52.128;21.068;2023-08-17T11:55:49;7.33;;;3.30;;
5060;SDS011;2549;52.128;21.068;2023-08-17T11:58:35;2.83;;;2.50;;
5060;SDS011;2549;52.128;21.068;2023-08-17T12:01:10;3.27;;;2.97;;
5060;SDS011;2549;52.128;21.068;2023-08-17T12:03:39;3.03;;;2.70;;
5060;SDS011;2549;52.128;21.068;2023-08-17T12:06:10;4.93;;;2.83;;
5060;SDS011;2549;52.128;21.068;2023-08-17T12:08:48;4.07;;;2.67;;
5060;SDS011;2549;52.128;21.068;2023-08-17T12:11:16;10.33;;;2.80;;
5060;SDS011;2549;52.128;21.068;2023-08-17T12:13:49;5.10;;;2.50;;
5060;SDS011;2549;52.128;21.068;2023-08-17T12:16:18;8.60;;;3.00;;
5060;SDS011;2549;52.128;21.068;2023-08-17T12:18:52;3.23;;;3.00;;
5060;SDS011;2549;52.128;21.068;2023-08-17T12:21:20;2.87;;;2.70;;
5060;SDS011;2549;52.128;21.068;2023-08-17T12:23:48;4.30;;;2.57;;
5060;SDS011;2549;52.128;21.068;2023-08-17T12:26:18;3.60;;;2.60;;
5060;SDS011;2549;52.128;21.068;2023-08-17T12:28:47;2.67;;;2.50;;
5060;SDS011;2549;52.128;21.068;2023-08-17T12:31:20;11.00;;;2.23;;
5060;SDS011;2549;52.128;21.068;2023-08-17T12:33:48;2.90;;;2.70;;
5060;SDS011;2549;52.128;21.068;2023-08-17T12:36:15;2.87;;;2.37;;
5060;SDS011;2549;52.128;21.068;2023-08-17T12:38:42;2.70;;;2.50;;
5060;SDS011;2549;52.128;21.068;2023-08-17T12:41:11;11.40;;;3.33;;
5060;SDS011;2549;52.128;21.068;2023-08-17T12:43:38;2.57;;;2.40;;
5060;SDS011;2549;52.128;21.068;2023-08-17T12:46:05;3.33;;;3.00;;
5060;SDS011;2549;52.128;21.068;2023-08-17T12:48:32;4.00;;;2.87;;
5060;SDS011;2549;52.128;21.068;2023-08-17T12:51:01;3.43;;;3.13;;
5060;SDS011;2549;52.128;21.068;2023-08-17T12:53:30;5.23;;;2.90;;
5060;SDS011;2549;52.128;21.068;2023-08-17T12:55:57;4.60;;;2.83;;
5060;SDS011;2549;52.128;21.068;2023-08-17T12:58:25;6.00;;;2.80;;
5060;SDS011;2549;52.128;21.068;2023-08-17T13:00:52;6.33;;;3.20;;
5060;SDS011;2549;52.128;21.068;2023-08-17T13:03:21;3.50;;;2.73;;
5060;SDS011;2549;52.128;21.068;2023-08-17T13:05:48;5.23;;;2.63;;
5060;SDS011;2549;52.128;21.068;2023-08-17T13:08:15;6.90;;;3.43;;
5060;SDS011;2549;52.128;21.068;2023-08-17T13:10:42;3.17;;;2.90;;
5060;SDS011;2549;52.128;21.068;2023-08-17T13:13:09;6.27;;;3.00;;
5060;SDS011;2549;52.128;21.068;2023-08-17T13:15:36;8.57;;;2.90;;
5060;SDS011;2549;52.128;21.068;2023-08-17T13:18:03;3.93;;;2.73;;
5060;SDS011;2549;52.128;21.068;2023-08-17T13:20:30;2.80;;;2.43;;
5060;SDS011;2549;52.128;21.068;2023-08-17T13:22:57;4.33;;;2.80;;
5060;SDS011;2549;52.128;21.068;2023-08-17T13:25:24;3.03;;;2.83;;
5060;SDS011;2549;52.128;21.068;2023-08-17T13:27:51;4.80;;;3.30;;
5060;SDS011;2549;52.128;21.068;2023-08-17T13:30:18;13.37;;;3.00;;
5060;SDS011;2549;52.128;21.068;2023-08-17T13:32:45;3.17;;;2.77;;
5060;SDS011;2549;52.128;21.068;2023-08-17T13:35:13;3.57;;;2.70;;
5060;SDS011;2549;52.128;21.068;2023-08-17T13:37:40;2.70;;;2.50;;
5060;SDS011;2549;52.128;21.068;2023-08-17T13:40:08;3.10;;;2.90;;
5060;SDS011;2549;52.128;21.068;2023-08-17T13:42:35;3.53;;;2.70;;
5060;SDS011;2549;52.128;21.068;2023-08-17T13:45:03;4.13;;;3.23;;
5060;SDS011;2549;52.128;21.068;2023-08-17T13:47:30;6.53;;;2.60;;
5060;SDS011;2549;52.128;21.068;2023-08-17T13:49:57;3.33;;;3.00;;
5060;SDS011;2549;52.128;21.068;2023-08-17T13:52:25;3.70;;;2.70;;
5060;SDS011;2549;52.128;21.068;2023-08-17T13:54:52;3.07;;;2.50;;
5060;SDS011;2549;52.128;21.068;2023-08-17T13:57:19;4.20;;;3.27;;
5060;SDS011;2549;52.128;21.068;2023-08-17T13:59:46;6.07;;;2.90;;
5060;SDS011;2549;52.128;21.068;2023-08-17T14:02:13;5.13;;;2.70;;
5060;SDS011;2549;52.128;21.068;2023-08-17T14:04:40;6.33;;;2.63;;
5060;SDS011;2549;52.128;21.068;2023-08-17T14:07:07;5.03;;;2.33;;
5060;SDS011;2549;52.128;21.068;2023-08-17T14:09:34;7.13;;;3.83;;
5060;SDS011;2549;52.128;21.068;2023-08-17T14:12:01;3.90;;;3.20;;
5060;SDS011;2549;52.128;21.068;2023-08-17T14:14:29;7.40;;;2.63;;
5060;SDS011;2549;52.128;21.068;2023-08-17T14:16:57;3.10;;;2.37;;
5060;SDS011;2549;52.128;21.068;2023-08-17T14:19:24;2.73;;;2.40;;
5060;SDS011;2549;52.128;21.068;2023-08-17T14:21:51;2.87;;;2.60;;
5060;SDS011;2549;52.128;21.068;2023-08-17T14:24:18;4.30;;;3.07;;
5060;SDS011;2549;52.128;21.068;2023-08-17T14:26:45;3.03;;;2.67;;
5060;SDS011;2549;52.128;21.068;2023-08-17T14:29:12;2.80;;;2.60;;
5060;SDS011;2549;52.128;21.068;2023-08-17T14:31:39;4.47;;;4.07;;
5060;SDS011;2549;52.128;21.068;2023-08-17T14:34:06;4.13;;;2.47;;
5060;SDS011;2549;52.128;21.068;2023-08-17T14:36:33;4.37;;;3.23;;
5060;SDS011;2549;52.128;21.068;2023-08-17T14:39:00;3.53;;;3.00;;
5060;SDS011;2549;52.128;21.068;2023-08-17T14:41:27;5.90;;;2.97;;
5060;SDS011;2549;52.128;21.068;2023-08-17T14:43:58;9.40;;;2.90;;
5060;SDS011;2549;52.128;21.068;2023-08-17T14:46:28;3.07;;;2.80;;
5060;SDS011;2549;52.128;21.068;2023-08-17T14:48:55;5.27;;;2.97;;
5060;SDS011;2549;52.128;21.068;2023-08-17T14:51:23;4.30;;;2.70;;
5060;SDS011;2549;52.128;21.068;2023-08-17T14:53:56;7.37;;;2.67;;
5060;SDS011;2549;52.128;21.068;2023-08-17T14:56:23;5.10;;;2.60;;
5060;SDS011;2549;52.128;21.068;2023-08-17T14:58:50;3.20;;;2.70;;
5060;SDS011;2549;52.128;21.068;2023-08-17T15:01:17;2.43;;;2.33;;
5060;SDS011;2549;52.128;21.068;2023-08-17T15:03:44;7.50;;;2.97;;
5060;SDS011;2549;52.128;21.068;2023-08-17T15:06:12;6.97;;;2.73;;
5060;SDS011;2549;52.128;21.068;2023-08-17T15:08:59;2.97;;;2.77;;
5060;SDS011;2549;52.128;21.068;2023-08-17T15:11:26;9.37;;;2.93;;
5060;SDS011;2549;52.128;21.068;2023-08-17T15:13:53;2.80;;;2.60;;
5060;SDS011;2549;52.128;21.068;2023-08-17T15:16:20;5.30;;;2.63;;
5060;SDS011;2549;52.128;21.068;2023-08-17T15:18:51;3.27;;;3.00;;